sensor_id;sensor_type;location;lat;lon;timestamp;temperature;humidity
47514;DHT22;33951;51.988;5.910;2022-11-15T00:01:17;8.20;99.90
47514;DHT22;33951;51.988;5.910;2022-11-15T00:03:54;8.20;99.90
47514;DHT22;33951;51.988;5.910;2022-11-15T00:06:19;8.30;99.90
47514;DHT22;33951;51.988;5.910;2022-11-15T00:08:45;8.30;99.90
47514;DHT22;33951;51.988;5.910;2022-11-15T00:11:12;8.40;99.90
47514;DHT22;33951;51.988;5.910;2022-11-15T00:13:38;8.40;99.90
47514;DHT22;33951;51.988;5.910;2022-11-15T00:16:10;8.40;99.90
47514;DHT22;33951;51.988;5.910;2022-11-15T00:18:36;8.50;99.90
47514;DHT22;33951;51.988;5.910;2022-11-15T00:21:12;8.60;99.90
47514;DHT22;33951;51.988;5.910;2022-11-15T00:23:57;8.60;99.90
47514;DHT22;33951;51.988;5.910;2022-11-15T00:26:36;8.60;99.90
47514;DHT22;33951;51.988;5.910;2022-11-15T00:29:07;8.70;99.90
47514;DHT22;33951;51.988;5.910;2022-11-15T00:31:35;8.70;99.90
47514;DHT22;33951;51.988;5.910;2022-11-15T00:34:01;8.70;99.90
47514;DHT22;33951;51.988;5.910;2022-11-15T00:36:27;8.80;99.90
47514;DHT22;33951;51.988;5.910;2022-11-15T00:38:52;8.80;99.90
47514;DHT22;33951;51.988;5.910;2022-11-15T00:41:18;8.80;99.90
47514;DHT22;33951;51.988;5.910;2022-11-15T00:43:46;8.80;99.90
47514;DHT22;33951;51.988;5.910;2022-11-15T00:46:12;8.80;99.90
47514;DHT22;33951;51.988;5.910;2022-11-15T00:48:40;8.80;99.90
47514;DHT22;33951;51.988;5.910;2022-11-15T00:51:06;8.90;99.90
47514;DHT22;33951;51.988;5.910;2022-11-15T00:53:34;8.90;99.90
47514;DHT22;33951;51.988;5.910;2022-11-15T00:56:05;9.00;99.90
47514;DHT22;33951;51.988;5.910;2022-11-15T00:58:30;9.10;99.90
47514;DHT22;33951;51.988;5.910;2022-11-15T06:01:17;12.00;99.90
47514;DHT22;33951;51.988;5.910;2022-11-15T06:03:43;12.00;99.90
47514;DHT22;33951;51.988;5.910;2022-11-15T06:06:08;12.00;99.90
47514;DHT22;33951;51.988;5.910;2022-11-15T06:08:34;12.10;99.90
47514;DHT22;33951;51.988;5.910;2022-11-15T06:11:05;12.30;99.90
47514;DHT22;33951;51.988;5.910;2022-11-15T06:13:32;12.50;99.90
47514;DHT22;33951;51.988;5.910;2022-11-15T06:15:57;12.40;99.90
47514;DHT22;33951;51.988;5.910;2022-11-15T06:18:23;12.40;99.90
47514;DHT22;33951;51.988;5.910;2022-11-15T06:20:49;12.20;99.90
47514;DHT22;33951;51.988;5.910;2022-11-15T06:23:15;12.10;99.90
47514;DHT22;33951;51.988;5.910;2022-11-15T06:25:40;12.10;99.90
47514;DHT22;33951;51.988;5.910;2022-11-15T06:28:06;12.40;99.90
47514;DHT22;33951;51.988;5.910;2022-11-15T06:30:31;12.50;99.90
47514;DHT22;33951;51.988;5.910;2022-11-15T06:32:59;12.70;99.90
47514;DHT22;33951;51.988;5.910;2022-11-15T06:35:26;12.80;99.90
47514;DHT22;33951;51.988;5.910;2022-11-15T06:37:51;12.80;99.90
47514;DHT22;33951;51.988;5.910;2022-11-15T06:40:17;12.90;99.90
47514;DHT22;33951;51.988;5.910;2022-11-15T06:42:42;12.90;99.90
47514;DHT22;33951;51.988;5.910;2022-11-15T06:45:08;12.90;99.90
47514;DHT22;33951;51.988;5.910;2022-11-15T06:47:46;12.90;99.90
47514;DHT22;33951;51.988;5.910;2022-11-15T06:50:12;12.90;99.90
47514;DHT22;33951;51.988;5.910;2022-11-15T06:52:38;12.90;99.90
47514;DHT22;33951;51.988;5.910;2022-11-15T06:55:03;12.90;99.90
47514;DHT22;33951;51.988;5.910;2022-11-15T06:57:29;12.80;99.90
47514;DHT22;33951;51.988;5.910;2022-11-15T06:59:55;12.80;99.90
47514;DHT22;33951;51.988;5.910;2022-11-15T07:02:20;12.60;99.90
47514;DHT22;33951;51.988;5.910;2022-11-15T07:04:46;12.60;99.90
47514;DHT22;33951;51.988;5.910;2022-11-15T07:07:11;12.60;99.90
47514;DHT22;33951;51.988;5.910;2022-11-15T07:09:37;12.60;99.90
47514;DHT22;33951;51.988;5.910;2022-11-15T07:12:03;12.50;99.90
47514;DHT22;33951;51.988;5.910;2022-11-15T07:14:28;12.50;99.90
47514;DHT22;33951;51.988;5.910;2022-11-15T07:16:54;12.50;99.90
47514;DHT22;33951;51.988;5.910;2022-11-15T07:19:19;12.40;99.90
47514;DHT22;33951;51.988;5.910;2022-11-15T07:21:45;12.20;99.90
47514;DHT22;33951;51.988;5.910;2022-11-15T07:24:10;12.20;99.90
47514;DHT22;33951;51.988;5.910;2022-11-15T07:26:36;12.10;99.90
47514;DHT22;33951;51.988;5.910;2022-11-15T07:29:01;12.20;99.90
47514;DHT22;33951;51.988;5.910;2022-11-15T07:31:27;12.00;99.90
47514;DHT22;33951;51.988;5.910;2022-11-15T07:33:53;11.90;99.90
47514;DHT22;33951;51.988;5.910;2022-11-15T07:36:18;11.80;99.90
47514;DHT22;33951;51.988;5.910;2022-11-15T07:38:44;11.70;99.90
47514;DHT22;33951;51.988;5.910;2022-11-15T07:41:09;11.60;99.90
47514;DHT22;33951;51.988;5.910;2022-11-15T07:43:35;11.50;99.90
47514;DHT22;33951;51.988;5.910;2022-11-15T07:46:05;11.60;99.90
47514;DHT22;33951;51.988;5.910;2022-11-15T07:48:32;11.60;99.90
47514;DHT22;33951;51.988;5.910;2022-11-15T07:50:58;11.70;99.90
47514;DHT22;33951;51.988;5.910;2022-11-15T07:53:23;11.70;99.90
47514;DHT22;33951;51.988;5.910;2022-11-15T07:55:49;11.90;99.90
47514;DHT22;33951;51.988;5.910;2022-11-15T07:58:15;11.90;99.90
47514;DHT22;33951;51.988;5.910;2022-11-15T08:00:40;12.00;99.90
47514;DHT22;33951;51.988;5.910;2022-11-15T08:03:11;12.00;99.90
47514;DHT22;33951;51.988;5.910;2022-11-15T08:05:38;12.00;99.90
47514;DHT22;33951;51.988;5.910;2022-11-15T08:08:05;11.90;99.90
47514;DHT22;33951;51.988;5.910;2022-11-15T08:10:31;11.90;99.90
47514;DHT22;33951;51.988;5.910;2022-11-15T08:13:05;11.90;99.90
47514;DHT22;33951;51.988;5.910;2022-11-15T08:15:32;11.90;99.90
47514;DHT22;33951;51.988;5.910;2022-11-15T08:18:01;11.80;99.90
47514;DHT22;33951;51.988;5.910;2022-11-15T08:20:29;11.80;99.90
47514;DHT22;33951;51.988;5.910;2022-11-15T08:22:58;11.80;99.90
47514;DHT22;33951;51.988;5.910;2022-11-15T08:25:25;11.90;99.90
47514;DHT22;33951;51.988;5.910;2022-11-15T08:27:55;11.90;99.90
47514;DHT22;33951;51.988;5.910;2022-11-15T08:30:20;12.00;99.90
47514;DHT22;33951;51.988;5.910;2022-11-15T08:32:47;12.10;99.90
47514;DHT22;33951;51.988;5.910;2022-11-15T08:35:12;12.30;99.90
47514;DHT22;33951;51.988;5.910;2022-11-15T08:37:38;12.20;99.90
47514;DHT22;33951;51.988;5.910;2022-11-15T08:40:04;12.40;99.90
47514;DHT22;33951;51.988;5.910;2022-11-15T08:42:30;12.50;99.90
47514;DHT22;33951;51.988;5.910;2022-11-15T08:44:56;12.50;99.90
47514;DHT22;33951;51.988;5.910;2022-11-15T08:47:21;12.60;99.90
47514;DHT22;33951;51.988;5.910;2022-11-15T08:49:47;12.60;99.90
47514;DHT22;33951;51.988;5.910;2022-11-15T08:52:14;12.60;99.90
47514;DHT22;33951;51.988;5.910;2022-11-15T08:54:39;12.50;99.90
47514;DHT22;33951;51.988;5.910;2022-11-15T08:57:05;12.40;99.90
47514;DHT22;33951;51.988;5.910;2022-11-15T08:59:31;12.30;99.90
47514;DHT22;33951;51.988;5.910;2022-11-15T09:01:56;12.20;99.90
47514;DHT22;33951;51.988;5.910;2022-11-15T09:04:22;12.10;99.90
47514;DHT22;33951;51.988;5.910;2022-11-15T09:06:48;12.10;99.90
47514;DHT22;33951;51.988;5.910;2022-11-15T09:09:14;12.10;99.90
47514;DHT22;33951;51.988;5.910;2022-11-15T09:11:39;12.20;99.90
47514;DHT22;33951;51.988;5.910;2022-11-15T09:14:05;12.10;99.90
47514;DHT22;33951;51.988;5.910;2022-11-15T09:16:31;12.10;99.90
47514;DHT22;33951;51.988;5.910;2022-11-15T09:18:57;12.10;99.90
47514;DHT22;33951;51.988;5.910;2022-11-15T09:21:22;12.00;99.90
47514;DHT22;33951;51.988;5.910;2022-11-15T09:23:50;12.00;99.90
47514;DHT22;33951;51.988;5.910;2022-11-15T09:26:20;12.00;99.90
47514;DHT22;33951;51.988;5.910;2022-11-15T09:28:45;12.00;99.90
47514;DHT22;33951;51.988;5.910;2022-11-15T09:31:11;12.00;99.90
47514;DHT22;33951;51.988;5.910;2022-11-15T09:33:37;12.00;99.90
47514;DHT22;33951;51.988;5.910;2022-11-15T09:36:07;12.10;99.90
47514;DHT22;33951;51.988;5.910;2022-11-15T09:38:33;12.10;99.90
47514;DHT22;33951;51.988;5.910;2022-11-15T09:43:50;12.20;99.90
47514;DHT22;33951;51.988;5.910;2022-11-15T09:46:41;12.20;99.90
47514;DHT22;33951;51.988;5.910;2022-11-15T09:49:09;12.20;99.90
47514;DHT22;33951;51.988;5.910;2022-11-15T09:51:40;12.20;99.90
47514;DHT22;33951;51.988;5.910;2022-11-15T09:54:34;12.20;99.90
47514;DHT22;33951;51.988;5.910;2022-11-15T09:57:15;12.30;99.90
47514;DHT22;33951;51.988;5.910;2022-11-15T10:05:25;12.20;99.90
47514;DHT22;33951;51.988;5.910;2022-11-15T10:10:32;12.50;99.90
47514;DHT22;33951;51.988;5.910;2022-11-15T10:12:59;12.50;99.90
47514;DHT22;33951;51.988;5.910;2022-11-15T10:15:25;12.60;99.90
47514;DHT22;33951;51.988;5.910;2022-11-15T10:20:24;12.50;99.90
47514;DHT22;33951;51.988;5.910;2022-11-15T10:22:52;12.40;99.90
47514;DHT22;33951;51.988;5.910;2022-11-15T10:25:27;12.50;99.90
47514;DHT22;33951;51.988;5.910;2022-11-15T10:28:17;12.20;99.90
47514;DHT22;33951;51.988;5.910;2022-11-15T10:30:50;12.20;99.90
47514;DHT22;33951;51.988;5.910;2022-11-15T10:41:21;12.00;99.90
47514;DHT22;33951;51.988;5.910;2022-11-15T10:46:41;12.30;99.90
47514;DHT22;33951;51.988;5.910;2022-11-15T10:49:13;12.40;99.90
47514;DHT22;33951;51.988;5.910;2022-11-15T10:52:00;12.60;99.90
47514;DHT22;33951;51.988;5.910;2022-11-15T10:57:22;13.10;99.90
47514;DHT22;33951;51.988;5.910;2022-11-15T10:59:53;13.10;99.90
47514;DHT22;33951;51.988;5.910;2022-11-15T11:05:36;13.40;99.90
47514;DHT22;33951;51.988;5.910;2022-11-15T11:08:19;13.40;99.90
47514;DHT22;33951;51.988;5.910;2022-11-15T11:10:56;13.30;99.90
47514;DHT22;33951;51.988;5.910;2022-11-15T11:19:04;13.20;99.90
47514;DHT22;33951;51.988;5.910;2022-11-15T11:21:42;13.30;99.90
47514;DHT22;33951;51.988;5.910;2022-11-15T11:24:34;13.40;99.90
47514;DHT22;33951;51.988;5.910;2022-11-15T11:30:23;13.50;99.90
47514;DHT22;33951;51.988;5.910;2022-11-15T11:33:16;13.50;99.90
47514;DHT22;33951;51.988;5.910;2022-11-15T11:47:01;14.20;99.90
47514;DHT22;33951;51.988;5.910;2022-11-15T11:49:42;14.30;99.90
47514;DHT22;33951;51.988;5.910;2022-11-15T11:52:28;14.20;99.90
47514;DHT22;33951;51.988;5.910;2022-11-15T12:00:54;14.40;99.90
47514;DHT22;33951;51.988;5.910;2022-11-15T12:03:40;14.40;99.90
47514;DHT22;33951;51.988;5.910;2022-11-15T12:15:03;14.60;99.90
47514;DHT22;33951;51.988;5.910;2022-11-15T12:17:30;14.50;99.90
47514;DHT22;33951;51.988;5.910;2022-11-15T12:19:59;14.50;99.90
47514;DHT22;33951;51.988;5.910;2022-11-15T12:28:18;15.00;99.90
47514;DHT22;33951;51.988;5.910;2022-11-15T12:30:52;15.20;99.90
47514;DHT22;33951;51.988;5.910;2022-11-15T12:36:50;15.30;99.90
47514;DHT22;33951;51.988;5.910;2022-11-15T12:39:04;15.30;99.90
47514;DHT22;33951;51.988;5.910;2022-11-15T12:41:35;15.30;99.90
47514;DHT22;33951;51.988;5.910;2022-11-15T12:44:02;15.30;99.90
47514;DHT22;33951;51.988;5.910;2022-11-15T13:02:20;15.50;99.90
47514;DHT22;33951;51.988;5.910;2022-11-15T13:04:47;15.40;99.90
47514;DHT22;33951;51.988;5.910;2022-11-15T13:20:17;15.30;99.90
47514;DHT22;33951;51.988;5.910;2022-11-15T13:30:59;15.20;99.90
47514;DHT22;33951;51.988;5.910;2022-11-15T13:33:34;15.20;99.90
47514;DHT22;33951;51.988;5.910;2022-11-15T13:36:21;15.10;99.90
47514;DHT22;33951;51.988;5.910;2022-11-15T13:41:23;15.10;99.90
47514;DHT22;33951;51.988;5.910;2022-11-15T13:43:51;15.00;99.90
47514;DHT22;33951;51.988;5.910;2022-11-15T13:46:22;14.90;99.90
47514;DHT22;33951;51.988;5.910;2022-11-15T13:49:02;15.00;99.90
47514;DHT22;33951;51.988;5.910;2022-11-15T13:51:38;15.10;99.90
47514;DHT22;33951;51.988;5.910;2022-11-15T13:54:30;15.10;99.90
47514;DHT22;33951;51.988;5.910;2022-11-15T13:57:05;14.90;99.90
47514;DHT22;33951;51.988;5.910;2022-11-15T13:59:45;14.80;99.90
47514;DHT22;33951;51.988;5.910;2022-11-15T14:02:21;14.70;99.90
47514;DHT22;33951;51.988;5.910;2022-11-15T14:04:56;14.70;99.90
47514;DHT22;33951;51.988;5.910;2022-11-15T14:07:25;14.70;99.90
47514;DHT22;33951;51.988;5.910;2022-11-15T14:09:52;14.70;99.90
47514;DHT22;33951;51.988;5.910;2022-11-15T14:12:27;14.60;99.90
47514;DHT22;33951;51.988;5.910;2022-11-15T14:14:53;14.60;99.90
47514;DHT22;33951;51.988;5.910;2022-11-15T14:19:53;14.70;99.90
47514;DHT22;33951;51.988;5.910;2022-11-15T14:25:05;14.40;99.90
47514;DHT22;33951;51.988;5.910;2022-11-15T14:27:32;14.30;99.90
47514;DHT22;33951;51.988;5.910;2022-11-15T14:29:58;14.20;99.90
47514;DHT22;33951;51.988;5.910;2022-11-15T14:32:24;14.20;99.90
47514;DHT22;33951;51.988;5.910;2022-11-15T14:37:23;14.00;99.90
47514;DHT22;33951;51.988;5.910;2022-11-15T14:39:50;14.00;99.90
47514;DHT22;33951;51.988;5.910;2022-11-15T14:42:17;13.90;99.90
47514;DHT22;33951;51.988;5.910;2022-11-15T14:44:42;13.80;99.90
47514;DHT22;33951;51.988;5.910;2022-11-15T14:47:08;13.80;99.90
47514;DHT22;33951;51.988;5.910;2022-11-15T14:49:33;13.80;99.90
47514;DHT22;33951;51.988;5.910;2022-11-15T14:51:59;13.70;99.90
47514;DHT22;33951;51.988;5.910;2022-11-15T14:54:25;13.80;99.90
47514;DHT22;33951;51.988;5.910;2022-11-15T14:56:50;13.80;99.90
47514;DHT22;33951;51.988;5.910;2022-11-15T14:59:16;13.70;99.90
47514;DHT22;33951;51.988;5.910;2022-11-15T15:01:41;13.70;99.90
47514;DHT22;33951;51.988;5.910;2022-11-15T15:04:09;13.60;99.90
47514;DHT22;33951;51.988;5.910;2022-11-15T15:06:35;13.60;99.90
47514;DHT22;33951;51.988;5.910;2022-11-15T15:09:01;13.50;99.90
47514;DHT22;33951;51.988;5.910;2022-11-15T15:11:29;13.50;99.90
47514;DHT22;33951;51.988;5.910;2022-11-15T15:13:55;13.50;99.90
47514;DHT22;33951;51.988;5.910;2022-11-15T15:16:23;13.50;99.90
47514;DHT22;33951;51.988;5.910;2022-11-15T15:18:50;13.60;99.90
47514;DHT22;33951;51.988;5.910;2022-11-15T15:21:26;13.40;99.90
47514;DHT22;33951;51.988;5.910;2022-11-15T15:23:56;13.40;99.90
47514;DHT22;33951;51.988;5.910;2022-11-15T15:26:23;13.30;99.90
47514;DHT22;33951;51.988;5.910;2022-11-15T15:28:49;13.30;99.90
47514;DHT22;33951;51.988;5.910;2022-11-15T15:31:16;13.30;99.90
47514;DHT22;33951;51.988;5.910;2022-11-15T15:33:42;13.30;99.90
47514;DHT22;33951;51.988;5.910;2022-11-15T15:36:12;13.20;99.90
47514;DHT22;33951;51.988;5.910;2022-11-15T15:38:38;13.30;99.90
47514;DHT22;33951;51.988;5.910;2022-11-15T15:41:11;13.20;99.90
47514;DHT22;33951;51.988;5.910;2022-11-15T15:43:36;13.20;99.90
47514;DHT22;33951;51.988;5.910;2022-11-15T15:46:02;13.20;99.90
47514;DHT22;33951;51.988;5.910;2022-11-15T15:48:28;13.10;99.90
47514;DHT22;33951;51.988;5.910;2022-11-15T15:50:53;13.00;99.90
47514;DHT22;33951;51.988;5.910;2022-11-15T15:53:19;13.10;99.90
47514;DHT22;33951;51.988;5.910;2022-11-15T15:55:44;13.10;99.90
47514;DHT22;33951;51.988;5.910;2022-11-15T15:58:10;13.10;99.90
47514;DHT22;33951;51.988;5.910;2022-11-15T16:00:36;12.90;99.90
47514;DHT22;33951;51.988;5.910;2022-11-15T16:03:03;12.90;99.90
47514;DHT22;33951;51.988;5.910;2022-11-15T16:05:28;12.90;99.90
47514;DHT22;33951;51.988;5.910;2022-11-15T16:07:54;13.00;99.90
47514;DHT22;33951;51.988;5.910;2022-11-15T16:10:25;12.90;99.90
47514;DHT22;33951;51.988;5.910;2022-11-15T16:12:52;12.90;99.90
47514;DHT22;33951;51.988;5.910;2022-11-15T16:15:18;12.90;99.90
47514;DHT22;33951;51.988;5.910;2022-11-15T16:17:52;12.90;99.90
47514;DHT22;33951;51.988;5.910;2022-11-15T16:20:28;13.00;99.90
47514;DHT22;33951;51.988;5.910;2022-11-15T16:22:54;12.90;99.90
47514;DHT22;33951;51.988;5.910;2022-11-15T16:25:20;12.90;99.90
47514;DHT22;33951;51.988;5.910;2022-11-15T16:27:46;12.90;99.90
47514;DHT22;33951;51.988;5.910;2022-11-15T16:30:17;13.10;99.90
47514;DHT22;33951;51.988;5.910;2022-11-15T16:32:42;13.10;99.90
47514;DHT22;33951;51.988;5.910;2022-11-15T16:35:12;13.10;99.90
47514;DHT22;33951;51.988;5.910;2022-11-15T16:37:38;13.10;99.90
47514;DHT22;33951;51.988;5.910;2022-11-15T16:40:27;13.10;99.90
47514;DHT22;33951;51.988;5.910;2022-11-15T16:42:55;13.10;99.90
47514;DHT22;33951;51.988;5.910;2022-11-15T16:45:21;13.10;99.90
47514;DHT22;33951;51.988;5.910;2022-11-15T16:47:47;13.10;99.90
47514;DHT22;33951;51.988;5.910;2022-11-15T16:50:20;13.10;99.90
47514;DHT22;33951;51.988;5.910;2022-11-15T16:52:53;13.00;99.90
47514;DHT22;33951;51.988;5.910;2022-11-15T16:55:20;13.00;99.90
47514;DHT22;33951;51.988;5.910;2022-11-15T16:57:46;13.00;99.90
47514;DHT22;33951;51.988;5.910;2022-11-15T17:00:12;13.10;99.90
47514;DHT22;33951;51.988;5.910;2022-11-15T17:02:44;13.10;99.90
47514;DHT22;33951;51.988;5.910;2022-11-15T17:05:10;13.10;99.90
47514;DHT22;33951;51.988;5.910;2022-11-15T17:07:36;13.10;99.90
47514;DHT22;33951;51.988;5.910;2022-11-15T17:10:02;13.00;99.90
47514;DHT22;33951;51.988;5.910;2022-11-15T17:12:27;13.10;99.90
47514;DHT22;33951;51.988;5.910;2022-11-15T17:14:55;13.10;99.90
47514;DHT22;33951;51.988;5.910;2022-11-15T17:17:21;13.10;99.90
47514;DHT22;33951;51.988;5.910;2022-11-15T17:19:47;13.00;99.90
47514;DHT22;33951;51.988;5.910;2022-11-15T17:22:13;13.00;99.90
47514;DHT22;33951;51.988;5.910;2022-11-15T17:24:38;13.00;99.90
47514;DHT22;33951;51.988;5.910;2022-11-15T17:27:04;13.10;99.90
47514;DHT22;33951;51.988;5.910;2022-11-15T17:29:30;13.10;99.90
47514;DHT22;33951;51.988;5.910;2022-11-15T17:32:31;13.20;99.90
47514;DHT22;33951;51.988;5.910;2022-11-15T17:34:57;13.10;99.90
47514;DHT22;33951;51.988;5.910;2022-11-15T17:37:25;13.10;99.90
47514;DHT22;33951;51.988;5.910;2022-11-15T17:42:58;13.20;99.90
47514;DHT22;33951;51.988;5.910;2022-11-15T17:45:24;13.20;99.90
47514;DHT22;33951;51.988;5.910;2022-11-15T17:47:49;13.20;99.90
47514;DHT22;33951;51.988;5.910;2022-11-15T17:50:16;13.10;99.90
47514;DHT22;33951;51.988;5.910;2022-11-15T17:52:42;13.30;99.90
47514;DHT22;33951;51.988;5.910;2022-11-15T17:55:08;13.30;99.90
47514;DHT22;33951;51.988;5.910;2022-11-15T17:57:34;13.10;99.90
47514;DHT22;33951;51.988;5.910;2022-11-15T17:59:59;13.10;99.90
47514;DHT22;33951;51.988;5.910;2022-11-15T18:02:25;13.00;99.90
47514;DHT22;33951;51.988;5.910;2022-11-15T18:04:50;13.10;99.90
47514;DHT22;33951;51.988;5.910;2022-11-15T18:07:16;13.10;99.90
47514;DHT22;33951;51.988;5.910;2022-11-15T18:09:41;13.00;99.90
47514;DHT22;33951;51.988;5.910;2022-11-15T18:12:09;13.10;99.90
47514;DHT22;33951;51.988;5.910;2022-11-15T18:14:35;13.20;99.90
47514;DHT22;33951;51.988;5.910;2022-11-15T18:17:00;13.20;99.90
47514;DHT22;33951;51.988;5.910;2022-11-15T18:19:26;13.20;99.90
47514;DHT22;33951;51.988;5.910;2022-11-15T18:21:51;13.20;99.90
47514;DHT22;33951;51.988;5.910;2022-11-15T18:24:33;13.00;99.90
47514;DHT22;33951;51.988;5.910;2022-11-15T18:27:00;13.10;99.90
47514;DHT22;33951;51.988;5.910;2022-11-15T18:29:26;13.10;99.90
47514;DHT22;33951;51.988;5.910;2022-11-15T18:31:52;13.20;99.90
47514;DHT22;33951;51.988;5.910;2022-11-15T18:34:21;13.20;99.90
47514;DHT22;33951;51.988;5.910;2022-11-15T18:36:49;13.10;99.90
47514;DHT22;33951;51.988;5.910;2022-11-15T18:39:15;13.10;99.90
47514;DHT22;33951;51.988;5.910;2022-11-15T18:41:42;13.00;99.90
47514;DHT22;33951;51.988;5.910;2022-11-15T18:44:09;12.90;99.90
47514;DHT22;33951;51.988;5.910;2022-11-15T18:46:34;12.90;99.90
47514;DHT22;33951;51.988;5.910;2022-11-15T18:49:01;12.90;99.90
47514;DHT22;33951;51.988;5.910;2022-11-15T18:51:29;12.90;99.90
47514;DHT22;33951;51.988;5.910;2022-11-15T18:53:57;12.90;99.90
47514;DHT22;33951;51.988;5.910;2022-11-15T18:56:25;12.90;99.90
47514;DHT22;33951;51.988;5.910;2022-11-15T18:58:54;12.90;99.90
47514;DHT22;33951;51.988;5.910;2022-11-15T19:01:25;12.90;99.90
47514;DHT22;33951;51.988;5.910;2022-11-15T19:03:53;12.90;99.90
47514;DHT22;33951;51.988;5.910;2022-11-15T19:06:26;12.90;99.90
47514;DHT22;33951;51.988;5.910;2022-11-15T19:08:53;12.70;99.90
47514;DHT22;33951;51.988;5.910;2022-11-15T19:11:22;12.70;99.90
47514;DHT22;33951;51.988;5.910;2022-11-15T19:14:01;12.70;99.90
47514;DHT22;33951;51.988;5.910;2022-11-15T19:16:32;12.70;99.90
47514;DHT22;33951;51.988;5.910;2022-11-15T19:19:00;12.70;99.90
47514;DHT22;33951;51.988;5.910;2022-11-15T19:21:26;12.80;99.90
47514;DHT22;33951;51.988;5.910;2022-11-15T19:23:52;12.80;99.90
47514;DHT22;33951;51.988;5.910;2022-11-15T19:26:19;12.80;99.90
47514;DHT22;33951;51.988;5.910;2022-11-15T19:28:52;12.80;99.90
47514;DHT22;33951;51.988;5.910;2022-11-15T19:31:19;12.80;99.90
47514;DHT22;33951;51.988;5.910;2022-11-15T19:33:45;12.70;99.90
47514;DHT22;33951;51.988;5.910;2022-11-15T19:36:19;12.70;99.90
47514;DHT22;33951;51.988;5.910;2022-11-15T19:38:46;12.70;99.90
47514;DHT22;33951;51.988;5.910;2022-11-15T19:41:16;12.70;99.90
47514;DHT22;33951;51.988;5.910;2022-11-15T19:43:43;12.70;99.90
47514;DHT22;33951;51.988;5.910;2022-11-15T19:46:10;12.70;99.90
47514;DHT22;33951;51.988;5.910;2022-11-15T19:48:36;12.60;99.90
47514;DHT22;33951;51.988;5.910;2022-11-15T19:51:08;12.60;99.90
47514;DHT22;33951;51.988;5.910;2022-11-15T19:53:34;12.60;99.90
47514;DHT22;33951;51.988;5.910;2022-11-15T19:56:11;12.60;99.90
47514;DHT22;33951;51.988;5.910;2022-11-15T19:58:37;12.70;99.90
47514;DHT22;33951;51.988;5.910;2022-11-15T20:01:28;12.60;99.90
47514;DHT22;33951;51.988;5.910;2022-11-15T20:03:57;12.70;99.90
47514;DHT22;33951;51.988;5.910;2022-11-15T20:06:29;12.60;99.90
47514;DHT22;33951;51.988;5.910;2022-11-15T20:08:54;12.60;99.90
47514;DHT22;33951;51.988;5.910;2022-11-15T20:11:21;12.60;99.90
47514;DHT22;33951;51.988;5.910;2022-11-15T20:13:46;12.50;99.90
47514;DHT22;33951;51.988;5.910;2022-11-15T20:16:20;12.50;99.90
47514;DHT22;33951;51.988;5.910;2022-11-15T20:18:47;12.50;99.90
47514;DHT22;33951;51.988;5.910;2022-11-15T20:21:13;12.50;99.90
47514;DHT22;33951;51.988;5.910;2022-11-15T20:23:39;12.60;99.90
47514;DHT22;33951;51.988;5.910;2022-11-15T20:26:06;12.50;99.90
47514;DHT22;33951;51.988;5.910;2022-11-15T20:28:31;12.50;99.90
47514;DHT22;33951;51.988;5.910;2022-11-15T20:30:59;12.50;99.90
47514;DHT22;33951;51.988;5.910;2022-11-15T20:33:25;12.60;99.90
47514;DHT22;33951;51.988;5.910;2022-11-15T20:35:51;12.60;99.90
47514;DHT22;33951;51.988;5.910;2022-11-15T20:38:17;12.60;99.90
47514;DHT22;33951;51.988;5.910;2022-11-15T20:40:44;12.50;99.90
47514;DHT22;33951;51.988;5.910;2022-11-15T20:43:12;12.50;99.90
47514;DHT22;33951;51.988;5.910;2022-11-15T20:45:39;12.50;99.90
47514;DHT22;33951;51.988;5.910;2022-11-15T20:48:07;12.60;99.90
47514;DHT22;33951;51.988;5.910;2022-11-15T20:50:33;12.70;99.90
47514;DHT22;33951;51.988;5.910;2022-11-15T20:52:59;12.60;99.90
47514;DHT22;33951;51.988;5.910;2022-11-15T20:55:24;12.50;99.90
47514;DHT22;33951;51.988;5.910;2022-11-15T20:58:09;12.50;99.90
47514;DHT22;33951;51.988;5.910;2022-11-15T21:00:35;12.50;99.90
47514;DHT22;33951;51.988;5.910;2022-11-15T21:03:02;12.50;99.90
47514;DHT22;33951;51.988;5.910;2022-11-15T21:05:32;12.50;99.90
47514;DHT22;33951;51.988;5.910;2022-11-15T21:07:58;12.50;99.90
47514;DHT22;33951;51.988;5.910;2022-11-15T21:10:23;12.70;99.90
47514;DHT22;33951;51.988;5.910;2022-11-15T21:13:07;12.60;99.90
47514;DHT22;33951;51.988;5.910;2022-11-15T21:15:36;12.60;99.90
47514;DHT22;33951;51.988;5.910;2022-11-15T21:18:07;12.70;99.90
47514;DHT22;33951;51.988;5.910;2022-11-15T21:20:39;12.70;99.90
47514;DHT22;33951;51.988;5.910;2022-11-15T21:23:10;12.70;99.90
47514;DHT22;33951;51.988;5.910;2022-11-15T21:25:36;12.70;99.90
47514;DHT22;33951;51.988;5.910;2022-11-15T21:28:01;12.70;99.90
47514;DHT22;33951;51.988;5.910;2022-11-15T21:30:27;12.80;99.90
47514;DHT22;33951;51.988;5.910;2022-11-15T21:32:53;12.70;99.90
47514;DHT22;33951;51.988;5.910;2022-11-15T21:35:18;12.80;99.90
47514;DHT22;33951;51.988;5.910;2022-11-15T21:37:44;12.80;99.90
47514;DHT22;33951;51.988;5.910;2022-11-15T21:40:10;12.80;99.90
47514;DHT22;33951;51.988;5.910;2022-11-15T21:42:35;12.80;99.90
47514;DHT22;33951;51.988;5.910;2022-11-15T21:45:01;12.70;99.90
47514;DHT22;33951;51.988;5.910;2022-11-15T21:47:27;12.60;99.90
47514;DHT22;33951;51.988;5.910;2022-11-15T21:49:52;12.60;99.90
47514;DHT22;33951;51.988;5.910;2022-11-15T21:52:18;12.60;99.90
47514;DHT22;33951;51.988;5.910;2022-11-15T21:54:44;12.60;99.90
47514;DHT22;33951;51.988;5.910;2022-11-15T21:57:10;12.70;99.90
47514;DHT22;33951;51.988;5.910;2022-11-15T21:59:35;12.70;99.90
47514;DHT22;33951;51.988;5.910;2022-11-15T22:02:21;12.60;99.90
47514;DHT22;33951;51.988;5.910;2022-11-15T22:04:46;12.60;99.90
47514;DHT22;33951;51.988;5.910;2022-11-15T22:07:14;12.60;99.90
47514;DHT22;33951;51.988;5.910;2022-11-15T22:09:40;12.60;99.90
47514;DHT22;33951;51.988;5.910;2022-11-15T22:12:06;12.60;99.90
47514;DHT22;33951;51.988;5.910;2022-11-15T22:14:31;12.70;99.90
47514;DHT22;33951;51.988;5.910;2022-11-15T22:16:57;12.70;99.90
47514;DHT22;33951;51.988;5.910;2022-11-15T22:19:22;12.70;99.90
47514;DHT22;33951;51.988;5.910;2022-11-15T22:21:48;12.80;99.90
47514;DHT22;33951;51.988;5.910;2022-11-15T22:24:13;12.70;99.90
47514;DHT22;33951;51.988;5.910;2022-11-15T22:26:39;12.80;99.90
47514;DHT22;33951;51.988;5.910;2022-11-15T22:29:05;12.80;99.90
47514;DHT22;33951;51.988;5.910;2022-11-15T22:31:30;12.80;99.90
47514;DHT22;33951;51.988;5.910;2022-11-15T22:33:56;12.80;99.90
47514;DHT22;33951;51.988;5.910;2022-11-15T22:36:21;12.60;99.90
47514;DHT22;33951;51.988;5.910;2022-11-15T22:38:47;12.60;99.90
47514;DHT22;33951;51.988;5.910;2022-11-15T22:41:13;12.70;99.90
47514;DHT22;33951;51.988;5.910;2022-11-15T22:43:38;12.80;99.90
47514;DHT22;33951;51.988;5.910;2022-11-15T22:46:04;12.80;99.90